This is the latest recevied weather packets stored in our database for station/object K6OUA-11. If no packets are shown the sender has not sent any weather packets the latest 1 day(s).
| Time | Temp. | Humidity | Pressure | Rain* | Wind** | Luminosity | Snow |
|---|---|---|---|---|---|---|---|
| 1778087261 | 18.33° C | 58% | - | 0 mm | - | - | - |
| 1778087139 | 18.33° C | 58% | - | 0 mm | - | - | - |
| 1778086164 | 17.78° C | 60% | - | 0 mm | - | - | - |
| 1778086042 | 17.78° C | 61% | - | 0 mm | - | - | - |
| 1778085920 | 17.78° C | 62% | - | 0 mm | - | - | - |
| 1778085798 | 17.78° C | 62% | - | 0 mm | - | - | - |
| 1778085310 | 17.78° C | 60% | - | 0 mm | - | - | - |
| 1778084823 | 17.78° C | 61% | - | 0 mm | - | - | - |
| 1778083969 | 17.78° C | 60% | - | 0 mm | - | - | - |
| 1778083482 | 17.78° C | 60% | - | 0 mm | - | - | - |
| 1778083360 | 17.78° C | 59% | - | 0 mm | - | - | - |
| 1778083116 | 17.78° C | 62% | - | 0 mm | - | - | - |
| 1778082506 | 17.22° C | 61% | - | 0 mm | - | - | - |
| 1778081288 | 15.56° C | 71% | - | 0 mm | - | - | - |
| 1778080922 | 15° C | 72% | - | 0 mm | - | - | - |
| 1778080800 | 15° C | 74% | - | 0 mm | - | - | - |
| 1778080434 | 15° C | 73% | - | 0 mm | - | - | - |
| 1778080190 | 15° C | 73% | - | 0 mm | - | - | - |
| 1778079581 | 14.44° C | 75% | - | 0 mm | - | - | - |
| 1778078728 | 13.89° C | 78% | - | 0 mm | - | - | - |
| 1778078604 | 13.33° C | 78% | - | 0 mm | - | - | - |
| 1778077996 | 12.78° C | 81% | - | 0 mm | - | - | - |
| 1778077752 | 12.78° C | 81% | - | 0 mm | - | - | - |
| 1778076897 | 11.67° C | 84% | - | 0 mm | - | - | - |
| 1778076777 | 11.67° C | 84% | - | 0 mm | - | - | - |
* Rain latest 24 hours (hover to see other rain measurements)
** Current wind speed in m/s (hover to see current wind gust speed)